Time;durP1;ratioP1;P1;durP2;ratioP2;P2;SDS_P1;SDS_P2;PMS_P1;PMS_P2;Temp;Humidity;BMP_temperature;BMP_pressure;BME280_temperature;BME280_humidity;BME280_pressure;Samples;Min_cycle;Max_cycle;Signal;HPM_P1;HPM_P2
2021/01/19 00:00:23;;;;;;;13.43;3.78;;;;;;;4.01;83.76;100466.94;5058911;28;20053;-77
2021/01/19 00:02:49;;;;;;;12.18;3.55;;;;;;;4.06;83.55;100480.00;5058581;28;20438;-79
2021/01/19 00:05:15;;;;;;;13.32;3.58;;;;;;;4.11;83.24;100469.28;5059180;28;20053;-76
2021/01/19 00:07:42;;;;;;;12.95;3.72;;;;;;;4.07;82.65;100453.53;5058380;28;20055;-78
2021/01/19 00:10:08;;;;;;;8.75;3.53;;;;;;;4.06;83.18;100443.00;5059057;28;20059;-77
2021/01/19 00:12:34;;;;;;;8.48;2.75;;;;;;;4.08;82.33;100455.28;5058605;28;20107;-77
2021/01/19 00:15:01;;;;;;;9.27;2.88;;;;;;;4.04;82.54;100434.28;5058695;28;20056;-77
2021/01/19 00:17:27;;;;;;;9.43;3.90;;;;;;;4.08;82.61;100441.19;5057310;28;20055;-77
2021/01/19 00:19:53;;;;;;;10.50;2.80;;;;;;;4.03;82.56;100432.56;5058692;28;20083;-77
2021/01/19 00:22:19;;;;;;;9.80;3.45;;;;;;;4.08;82.15;100427.97;5056825;28;20078;-78
2021/01/19 00:24:45;;;;;;;10.68;3.17;;;;;;;4.11;82.06;100435.81;5057863;28;20053;-77
2021/01/19 00:27:11;;;;;;;9.93;2.95;;;;;;;4.08;82.61;100435.91;5058526;28;20049;-78
2021/01/19 00:29:37;;;;;;;10.73;3.45;;;;;;;4.05;82.53;100422.81;5057606;28;20378;-78
2021/01/19 00:32:04;;;;;;;9.02;3.53;;;;;;;3.93;82.11;100413.47;5059015;28;20446;-77
2021/01/19 00:34:30;;;;;;;14.68;3.10;;;;;;;4.04;81.81;100423.72;5042069;28;20053;-77
2021/01/19 00:36:56;;;;;;;10.75;2.97;;;;;;;4.01;82.36;100414.09;5059986;28;20052;-78
2021/01/19 00:39:24;;;;;;;19.58;3.40;;;;;;;3.99;81.36;100404.50;5054555;28;20099;-77
2021/01/19 00:41:50;;;;;;;10.65;2.95;;;;;;;4.06;81.72;100411.31;5039399;28;20108;-79
2021/01/19 00:44:16;;;;;;;14.40;3.17;;;;;;;3.99;80.92;100400.09;5038305;28;20052;-78
2021/01/19 00:46:42;;;;;;;10.73;2.78;;;;;;;4.06;81.28;100398.09;5039264;28;20056;-77
2021/01/19 00:49:08;;;;;;;8.65;2.67;;;;;;;3.99;81.22;100388.66;5038610;28;20046;-77
2021/01/19 00:51:36;;;;;;;12.32;3.05;;;;;;;3.85;81.40;100368.78;5039618;28;20324;-78
2021/01/19 00:54:03;;;;;;;14.60;3.45;;;;;;;3.85;81.51;100376.72;5037565;28;20443;-78
2021/01/19 00:56:40;;;;;;;10.45;2.97;;;;;;;3.90;81.33;100382.72;5037884;28;20128;-79
2021/01/19 00:59:06;;;;;;;9.90;2.75;;;;;;;3.85;81.59;100382.00;5037672;28;20057;-78
2021/01/19 01:01:34;;;;;;;8.65;2.55;;;;;;;3.86;81.71;100386.38;5037661;28;20058;-78
2021/01/19 01:04:00;;;;;;;8.70;3.08;;;;;;;3.74;81.61;100358.56;5037330;28;20333;-77
2021/01/19 01:06:26;;;;;;;8.38;2.53;;;;;;;3.77;82.26;100378.72;5037379;28;20104;-77
2021/01/19 01:08:53;;;;;;;12.25;3.53;;;;;;;3.76;81.80;100361.16;5036860;28;20053;-77
2021/01/19 01:11:19;;;;;;;10.80;3.30;;;;;;;3.72;81.77;100370.06;5036154;28;20141;-77
2021/01/19 01:13:45;;;;;;;9.50;3.45;;;;;;;3.66;82.26;100358.75;5036869;28;20053;-76
2021/01/19 01:16:12;;;;;;;10.88;3.28;;;;;;;3.60;82.00;100353.66;5036914;28;20057;-77
2021/01/19 01:18:39;;;;;;;10.07;3.15;;;;;;;3.67;81.27;100360.50;5036034;28;20053;-77
2021/01/19 01:21:10;;;;;;;9.27;2.88;;;;;;;3.57;81.66;100340.56;5036737;28;20076;-77
2021/01/19 01:23:37;;;;;;;11.25;3.28;;;;;;;3.65;81.68;100364.13;5036657;28;20099;-76
2021/01/19 01:26:04;;;;;;;5.68;2.78;;;;;;;3.63;81.66;100350.94;5036746;28;20057;-77
2021/01/19 01:28:31;;;;;;;10.95;2.53;;;;;;;3.55;81.96;100342.41;5036607;28;20092;-77
2021/01/19 01:30:57;;;;;;;13.32;3.38;;;;;;;3.44;82.14;100332.16;5039716;28;20140;-77
2021/01/19 01:33:24;;;;;;;12.85;3.03;;;;;;;3.49;82.09;100334.66;5035443;28;20333;-76
2021/01/19 01:35:51;;;;;;;15.77;3.10;;;;;;;3.51;82.21;100344.25;5036702;28;20332;-77
2021/01/19 01:38:17;;;;;;;11.93;3.35;;;;;;;3.51;82.07;100341.63;5036411;28;20045;-77
2021/01/19 01:40:43;;;;;;;9.50;3.03;;;;;;;3.45;82.23;100333.00;5036508;28;20061;-76
2021/01/19 01:43:12;;;;;;;12.30;2.88;;;;;;;3.40;82.47;100326.06;5036263;28;20060;-77
2021/01/19 01:45:39;;;;;;;12.48;2.85;;;;;;;3.40;82.38;100327.84;5036304;28;20495;-77
2021/01/19 01:48:08;;;;;;;13.77;3.70;;;;;;;3.31;82.67;100313.16;5035419;28;20059;-77
2021/01/19 01:50:36;;;;;;;16.65;3.72;;;;;;;3.33;82.56;100311.31;5036103;28;20347;-77
2021/01/19 01:53:03;;;;;;;16.88;4.43;;;;;;;3.30;82.93;100306.16;5036130;28;20057;-77
2021/01/19 01:55:30;;;;;;;17.48;3.65;;;;;;;3.27;83.43;100295.66;5034989;28;20064;-77
2021/01/19 01:57:56;;;;;;;14.98;3.45;;;;;;;3.21;83.41;100293.22;5036529;28;20042;-77
2021/01/19 02:00:23;;;;;;;11.52;3.55;;;;;;;3.20;82.75;100284.44;5036011;28;20092;-77
2021/01/19 02:02:51;;;;;;;14.35;3.85;;;;;;;3.16;83.31;100284.56;5018641;28;20049;-78
2021/01/19 02:05:19;;;;;;;10.77;3.50;;;;;;;3.10;83.58;100272.41;5035900;28;20347;-77
2021/01/19 02:07:59;;;;;;;13.75;3.65;;;;;;;3.20;83.59;100280.94;5036242;28;20045;-77
2021/01/19 02:10:29;;;;;;;18.27;3.83;;;;;;;3.17;83.66;100273.13;5035861;28;20049;-78
2021/01/19 02:13:42;;;;;;;15.68;3.53;;;;;;;3.17;84.13;100263.44;5034815;28;20523;-78
2021/01/19 02:16:11;;;;;;;16.38;4.10;;;;;;;3.07;83.69;100252.28;4994193;28;20061;-78
2021/01/19 02:18:59;;;;;;;15.50;4.25;;;;;;;3.17;83.73;100262.56;4978253;28;20133;-78
2021/01/19 02:22:02;;;;;;;11.20;3.90;;;;;;;3.14;84.28;100252.13;5023104;28;20064;-79
2021/01/19 02:25:01;;;;;;;19.48;3.85;;;;;;;3.16;84.36;100245.88;5034421;28;20053;-79
2021/01/19 02:27:52;;;;;;;20.60;3.80;;;;;;;3.17;84.38;100239.72;5035815;28;20057;-77
2021/01/19 02:30:40;;;;;;;11.40;4.07;;;;;;;3.19;84.02;100229.09;5035803;28;20045;-78
2021/01/19 02:33:37;;;;;;;10.05;3.65;;;;;;;3.19;84.49;100211.50;5036031;28;20449;-78
2021/01/19 02:36:26;;;;;;;11.70;3.45;;;;;;;3.20;84.68;100201.78;5035633;28;20132;-77
2021/01/19 02:38:58;;;;;;;15.05;4.45;;;;;;;3.18;84.50;100183.41;5033811;28;20347;-78
2021/01/19 02:41:27;;;;;;;17.70;4.82;;;;;;;3.16;84.43;100179.09;5035642;28;20107;-77
2021/01/19 02:44:04;;;;;;;13.57;3.65;;;;;;;3.29;84.17;100183.06;5035654;28;20123;-78
2021/01/19 02:46:30;;;;;;;17.30;4.13;;;;;;;3.29;84.18;100167.25;5035067;28;20045;-79
2021/01/19 02:48:56;;;;;;;19.15;4.07;;;;;;;3.28;84.61;100156.72;5035360;28;20442;-78
2021/01/19 02:51:22;;;;;;;17.77;4.43;;;;;;;3.25;84.63;100136.59;5017958;28;20061;-77
2021/01/19 02:53:53;;;;;;;10.43;3.55;;;;;;;3.37;83.57;100141.47;5034416;28;20076;-76
2021/01/19 02:56:31;;;;;;;15.73;3.50;;;;;;;3.39;83.94;100134.38;5034310;28;20049;-76
2021/01/19 02:59:17;;;;;;;12.18;3.35;;;;;;;3.46;83.97;100115.72;5034466;28;20049;-77
2021/01/19 03:01:48;;;;;;;16.52;4.65;;;;;;;3.46;83.57;100127.13;5035030;28;20152;-76
2021/01/19 03:04:18;;;;;;;16.83;4.43;;;;;;;3.53;84.08;100122.50;5034017;28;20049;-77
2021/01/19 03:06:45;;;;;;;12.18;4.05;;;;;;;3.48;83.52;100108.63;5035205;28;20056;-77
2021/01/19 03:09:14;;;;;;;14.25;3.50;;;;;;;3.53;83.86;100109.31;5035350;28;20136;-77
2021/01/19 03:11:41;;;;;;;13.00;3.67;;;;;;;3.57;83.79;100115.34;5035068;28;20079;-77
2021/01/19 03:14:07;;;;;;;16.27;3.47;;;;;;;3.62;83.22;100098.47;5034126;28;20060;-77
2021/01/19 03:16:33;;;;;;;17.05;3.40;;;;;;;3.54;82.87;100079.38;5034873;28;20446;-76
2021/01/19 03:19:02;;;;;;;12.77;3.15;;;;;;;3.62;83.33;100087.03;5034510;28;20071;-77
2021/01/19 03:21:28;;;;;;;12.02;3.17;;;;;;;3.65;83.11;100079.03;5033500;28;20447;-77
2021/01/19 03:23:54;;;;;;;11.93;3.30;;;;;;;3.66;82.95;100083.41;5034198;28;20056;-77
2021/01/19 03:26:21;;;;;;;10.07;3.10;;;;;;;3.62;82.53;100053.59;5033787;28;20458;-77
2021/01/19 03:28:47;;;;;;;17.63;3.22;;;;;;;3.69;82.73;100048.97;5017600;28;20057;-77
2021/01/19 03:31:13;;;;;;;15.88;3.15;;;;;;;3.77;82.30;100048.72;5034654;28;20072;-78
2021/01/19 03:33:39;;;;;;;11.23;2.70;;;;;;;3.77;82.24;100054.84;5034908;28;20049;-77
2021/01/19 03:36:06;;;;;;;10.02;2.40;;;;;;;3.81;82.06;100039.75;5033648;28;20079;-77
2021/01/19 03:38:36;;;;;;;12.38;2.75;;;;;;;3.80;82.67;100028.34;5042977;28;20354;-77
2021/01/19 03:41:02;;;;;;;9.77;2.85;;;;;;;3.75;82.25;100008.28;5054871;28;20084;-77
2021/01/19 03:43:29;;;;;;;15.95;2.95;;;;;;;3.86;82.62;100015.84;5053576;28;20049;-77
2021/01/19 03:45:55;;;;;;;8.77;2.92;;;;;;;3.79;82.87;100007.28;5054552;28;20324;-76
2021/01/19 03:48:21;;;;;;;19.85;3.88;;;;;;;3.76;83.45;99986.28;5053805;28;20053;-76
2021/01/19 03:50:47;;;;;;;9.07;2.53;;;;;;;3.85;82.63;99999.13;5053348;28;20053;-76
2021/01/19 03:53:14;;;;;;;11.23;2.65;;;;;;;3.88;82.78;99996.38;5054649;28;20058;-77
2021/01/19 03:55:40;;;;;;;11.25;2.55;;;;;;;3.94;83.02;99990.03;5053418;28;20496;-76
2021/01/19 03:58:06;;;;;;;8.68;2.60;;;;;;;3.94;82.52;99975.03;5058227;28;20052;-77
2021/01/19 04:00:33;;;;;;;12.85;3.35;;;;;;;3.94;83.32;99979.47;5057442;28;20049;-76
2021/01/19 04:02:59;;;;;;;8.88;2.50;;;;;;;3.97;83.05;99974.06;5058442;28;20075;-76
2021/01/19 04:05:25;;;;;;;12.70;2.72;;;;;;;3.95;83.96;99975.91;5058267;28;20350;-77
2021/01/19 04:07:52;;;;;;;9.18;2.45;;;;;;;3.98;84.29;99965.22;5056956;28;20426;-76
2021/01/19 04:10:18;;;;;;;16.20;2.58;;;;;;;3.94;84.22;99959.19;5058117;28;20061;-76
2021/01/19 04:12:46;;;;;;;11.25;2.03;;;;;;;4.04;83.73;99953.59;5057874;28;20052;-77
2021/01/19 04:15:12;;;;;;;9.23;2.30;;;;;;;3.92;83.75;99925.88;5057905;28;20434;-77
2021/01/19 04:17:39;;;;;;;6.57;2.50;;;;;;;4.07;83.69;99938.47;5057829;28;20057;-76
2021/01/19 04:20:06;;;;;;;10.20;2.08;;;;;;;4.14;83.52;99939.09;5057869;28;20385;-77
2021/01/19 04:22:33;;;;;;;12.18;2.67;;;;;;;4.14;83.66;99939.09;5058035;28;20049;-76
2021/01/19 04:24:59;;;;;;;11.38;4.07;;;;;;;4.16;84.18;99945.22;5057120;28;20052;-76
2021/01/19 04:27:25;;;;;;;10.02;2.33;;;;;;;4.17;83.95;99931.06;5056462;28;20049;-76
2021/01/19 04:29:51;;;;;;;11.77;2.45;;;;;;;4.12;84.88;99918.94;5056520;28;20057;-76
2021/01/19 04:32:17;;;;;;;7.88;2.13;;;;;;;4.15;85.13;99914.41;5056265;28;20102;-77
2021/01/19 04:34:44;;;;;;;10.60;2.38;;;;;;;4.08;85.08;99911.16;5056521;28;20053;-76
2021/01/19 04:37:10;;;;;;;9.43;2.10;;;;;;;4.08;86.27;99918.19;5058194;28;20052;-77
2021/01/19 04:39:36;;;;;;;7.82;1.58;;;;;;;4.10;86.01;99908.47;5040724;28;20052;-76
2021/01/19 04:42:03;;;;;;;8.32;2.00;;;;;;;4.08;86.63;99903.22;5036607;28;20054;-77
2021/01/19 04:44:30;;;;;;;7.53;1.95;;;;;;;4.05;86.88;99903.31;5037515;28;20079;-77
2021/01/19 04:46:57;;;;;;;5.50;2.00;;;;;;;4.02;87.97;99894.66;5037292;28;20436;-77
2021/01/19 04:49:24;;;;;;;7.25;1.90;;;;;;;4.00;88.35;99880.66;5037540;28;20050;-77
2021/01/19 04:51:51;;;;;;;9.98;2.40;;;;;;;3.90;89.18;99867.81;5037182;28;20135;-77
2021/01/19 04:54:21;;;;;;;9.77;1.77;;;;;;;3.83;89.23;99855.78;5036529;28;20053;-77
2021/01/19 04:56:53;;;;;;;10.68;2.05;;;;;;;3.89;88.83;99865.22;5037269;28;20096;-76
2021/01/19 04:59:24;;;;;;;10.35;2.10;;;;;;;3.93;89.50;99878.25;5037220;28;20059;-76
2021/01/19 05:01:53;;;;;;;5.45;1.60;;;;;;;3.93;88.69;99865.06;5037354;28;20057;-77
2021/01/19 05:04:25;;;;;;;6.72;2.00;;;;;;;3.94;89.08;99855.38;5037011;28;20046;-76
2021/01/19 05:07:31;;;;;;;6.80;1.80;;;;;;;3.91;89.18;99851.06;5037145;28;20119;-77
2021/01/19 05:10:21;;;;;;;6.07;1.45;;;;;;;3.91;89.31;99848.41;5036890;28;20461;-77
2021/01/19 05:12:58;;;;;;;7.40;1.50;;;;;;;3.83;88.59;99818.81;5036955;28;20056;-77
2021/01/19 05:15:25;;;;;;;8.68;1.63;;;;;;;3.89;88.35;99838.81;5037284;28;20053;-77
2021/01/19 05:17:54;;;;;;;4.82;1.45;;;;;;;3.99;88.18;99839.34;5036885;28;20329;-77
2021/01/19 05:20:21;;;;;;;3.47;1.35;;;;;;;4.01;87.81;99826.94;5037099;28;20123;-77
2021/01/19 05:22:56;;;;;;;6.13;1.70;;;;;;;4.02;87.64;99826.88;5036941;28;20049;-77
2021/01/19 05:25:22;;;;;;;4.53;1.83;;;;;;;4.10;87.29;99831.88;5036760;28;20054;-77
2021/01/19 05:27:49;;;;;;;4.35;1.50;;;;;;;4.11;86.92;99827.44;5036452;28;20115;-75
2021/01/19 05:30:15;;;;;;;4.93;1.27;;;;;;;4.11;87.28;99833.59;5035410;28;20061;-76
2021/01/19 05:32:43;;;;;;;3.03;1.05;;;;;;;4.15;87.16;99819.31;5035184;28;20061;-75
2021/01/19 05:35:20;;;;;;;4.97;1.48;;;;;;;4.15;87.12;99821.94;5035504;28;20060;-76
2021/01/19 05:37:59;;;;;;;2.42;1.25;;;;;;;4.17;87.44;99808.69;5036747;28;20348;-76
2021/01/19 05:40:26;;;;;;;2.92;1.17;;;;;;;4.17;87.33;99806.94;5046497;28;20049;-75
2021/01/19 05:42:54;;;;;;;5.20;1.90;;;;;;;4.21;86.42;99792.66;5052844;28;20057;-79
2021/01/19 05:45:20;;;;;;;3.80;1.13;;;;;;;4.23;87.14;99794.41;5056457;28;20048;-75
2021/01/19 05:47:46;;;;;;;4.20;1.17;;;;;;;4.28;86.82;99790.63;5050757;28;20050;-73
2021/01/19 05:50:14;;;;;;;3.42;1.63;;;;;;;4.20;87.10;99768.97;5051751;28;20056;-76
2021/01/19 05:52:46;;;;;;;5.65;2.00;;;;;;;4.21;87.10;99776.81;5053790;28;20048;-73
2021/01/19 05:55:13;;;;;;;3.15;1.27;;;;;;;4.20;87.22;99761.88;5056342;28;20115;-74
2021/01/19 05:57:39;;;;;;;2.90;1.25;;;;;;;4.24;87.33;99767.91;5055732;28;20041;-71
2021/01/19 06:00:06;;;;;;;4.45;0.98;;;;;;;4.20;87.06;99751.31;5047823;28;20064;-75
2021/01/19 06:02:43;;;;;;;6.68;1.83;;;;;;;4.24;87.40;99746.75;5045986;28;20056;-77
2021/01/19 06:05:15;;;;;;;6.63;1.42;;;;;;;4.19;88.23;99751.38;5043657;28;20110;-73
2021/01/19 06:07:44;;;;;;;3.95;1.20;;;;;;;4.13;88.99;99741.91;5043384;28;20046;-74
2021/01/19 06:10:13;;;;;;;3.22;1.00;;;;;;;4.10;88.87;99736.78;5041240;28;20061;-76
2021/01/19 06:12:39;;;;;;;7.80;1.27;;;;;;;4.06;89.57;99745.75;5046387;28;20095;-73
2021/01/19 06:15:07;;;;;;;3.20;1.27;;;;;;;4.00;89.27;99715.16;5045036;28;20049;-75
2021/01/19 06:17:34;;;;;;;5.80;1.33;;;;;;;4.05;89.63;99733.47;5046044;28;20434;-75
2021/01/19 06:20:02;;;;;;;8.63;1.63;;;;;;;3.90;90.32;99709.41;5043081;28;20061;-74
2021/01/19 06:22:29;;;;;;;1.42;1.20;;;;;;;4.01;89.85;99714.25;5040206;28;20053;-74
2021/01/19 06:24:56;;;;;;;6.18;1.65;;;;;;;3.99;90.82;99702.03;5046153;28;20182;-74
2021/01/19 06:27:22;;;;;;;5.28;1.33;;;;;;;3.98;91.48;99713.50;5045800;28;20049;-76
2021/01/19 06:29:50;;;;;;;5.55;1.60;;;;;;;3.91;91.85;99695.28;5044068;28;20049;-73
2021/01/19 06:32:17;;;;;;;2.97;1.20;;;;;;;3.90;92.05;99685.66;5062360;28;20458;-76
2021/01/19 06:34:44;;;;;;;3.53;1.40;;;;;;;3.82;91.87;99666.63;5045265;28;20053;-75
2021/01/19 06:37:26;;;;;;;7.18;2.45;;;;;;;3.82;92.30;99679.81;5043851;28;20111;-75
2021/01/19 06:39:58;;;;;;;5.82;1.30;;;;;;;3.81;92.21;99672.78;5044110;28;20053;-76
2021/01/19 06:42:30;;;;;;;4.60;1.50;;;;;;;3.79;93.08;99680.81;5045895;28;20053;-75
2021/01/19 06:45:04;;;;;;;5.63;1.65;;;;;;;3.75;93.37;99659.84;5045211;28;20405;-76
2021/01/19 06:47:56;;;;;;;14.93;1.77;;;;;;;3.73;92.92;99659.06;5046166;28;20610;-76
2021/01/19 06:50:27;;;;;;;9.68;1.80;;;;;;;3.66;93.57;99654.03;5045598;28;20053;-76
2021/01/19 06:53:21;;;;;;;7.68;1.50;;;;;;;3.73;93.14;99648.50;5043748;28;20080;-78
2021/01/19 06:56:06;;;;;;;3.20;1.00;;;;;;;3.71;94.42;99663.56;5045980;28;20049;-78
2021/01/19 06:58:50;;;;;;;6.90;1.70;;;;;;;3.66;94.84;99648.75;5045295;28;20044;-77
2021/01/19 07:01:19;;;;;;;16.20;2.00;;;;;;;3.68;94.79;99635.50;5040867;28;20050;-78
2021/01/19 07:03:47;;;;;;;6.30;1.45;;;;;;;3.66;94.90;99659.31;5044317;28;20079;-75
2021/01/19 07:06:15;;;;;;;5.97;1.48;;;;;;;3.70;94.58;99636.28;5042926;28;20059;-73
2021/01/19 07:09:21;;;;;;;3.03;1.65;;;;;;;3.67;94.57;99628.50;5042579;28;20038;-76
2021/01/19 07:11:50;;;;;;;3.25;1.08;;;;;;;3.70;94.53;99619.59;5045560;28;20049;-76
2021/01/19 07:14:41;;;;;;;7.82;1.38;;;;;;;3.65;94.50;99593.41;5044156;28;20457;-75
2021/01/19 07:17:18;;;;;;;8.63;1.70;;;;;;;3.66;95.19;99598.59;5034950;28;20053;-78
2021/01/19 07:19:50;;;;;;;8.45;1.63;;;;;;;3.53;94.81;99568.38;5034842;28;20054;-77
2021/01/19 07:22:37;;;;;;;8.02;1.60;;;;;;;3.68;94.17;99588.00;5034806;28;20053;-77
2021/01/19 07:25:04;;;;;;;9.15;1.38;;;;;;;3.50;94.95;99560.59;5034912;28;20435;-77
2021/01/19 07:27:32;;;;;;;8.30;1.70;;;;;;;3.42;95.14;99550.34;5017686;28;20132;-79
2021/01/19 07:29:58;;;;;;;8.38;1.80;;;;;;;3.44;95.14;99555.56;5017599;28;20064;-76
2021/01/19 07:32:28;;;;;;;7.03;1.58;;;;;;;3.50;94.93;99565.88;5037591;28;20057;-76
2021/01/19 07:34:57;;;;;;;9.03;1.47;;;;;;;3.47;95.11;99558.94;5039082;28;20049;-78
2021/01/19 07:37:35;;;;;;;6.03;1.30;;;;;;;3.48;94.26;99538.69;5038756;28;20056;-77
2021/01/19 07:40:15;;;;;;;5.60;1.55;;;;;;;3.55;94.83;99545.44;5058432;28;20063;-78
2021/01/19 07:42:41;;;;;;;4.35;1.13;;;;;;;3.66;94.77;99564.28;5058568;28;20053;-76
2021/01/19 07:45:08;;;;;;;7.88;1.48;;;;;;;3.49;95.65;99527.22;5053936;28;20052;-77
2021/01/19 07:47:42;;;;;;;4.38;1.58;;;;;;;3.66;95.37;99544.97;5057414;28;20044;-77
2021/01/19 07:50:14;;;;;;;7.03;1.30;;;;;;;3.70;95.23;99541.28;5058070;28;20053;-76
2021/01/19 07:52:43;;;;;;;7.53;1.10;;;;;;;3.68;94.65;99537.84;5058336;28;20061;-76
2021/01/19 07:55:17;;;;;;;5.15;1.30;;;;;;;3.67;95.70;99517.66;5057809;28;20131;-75
2021/01/19 07:57:47;;;;;;;7.97;1.52;;;;;;;3.73;94.44;99535.88;5058358;28;20130;-77
2021/01/19 08:00:26;;;;;;;4.63;1.15;;;;;;;3.77;94.97;99534.81;5057347;28;20365;-77
2021/01/19 08:03:05;;;;;;;4.63;1.30;;;;;;;3.67;95.40;99510.59;5058485;28;20131;-76
2021/01/19 08:05:33;;;;;;;2.83;1.03;;;;;;;3.70;95.71;99511.41;5058466;28;20049;-76
2021/01/19 08:07:59;;;;;;;3.95;1.17;;;;;;;3.74;94.98;99518.25;5058218;28;20068;-78
2021/01/19 08:10:30;;;;;;;5.90;1.70;;;;;;;3.69;95.65;99497.34;5056640;28;20056;-77
2021/01/19 08:12:58;;;;;;;8.43;1.40;;;;;;;3.67;94.99;99504.47;5057585;28;20438;-75
2021/01/19 08:15:33;;;;;;;6.70;1.30;;;;;;;3.72;94.96;99520.97;5056905;28;20439;-75
2021/01/19 08:18:02;;;;;;;6.13;1.40;;;;;;;3.75;94.01;99510.25;5057923;28;20049;-76
2021/01/19 08:20:49;;;;;;;3.10;0.85;;;;;;;3.79;94.69;99482.81;5056714;28;20087;-75
2021/01/19 08:23:17;;;;;;;3.45;1.23;;;;;;;3.64;94.97;99465.88;5058077;28;20297;-76
2021/01/19 08:25:44;;;;;;;3.60;0.80;;;;;;;3.76;94.24;99490.03;5057607;28;20510;-74
2021/01/19 08:28:13;;;;;;;9.88;1.65;;;;;;;3.78;94.73;99489.03;5055503;28;20048;-78
2021/01/19 08:30:40;;;;;;;4.70;1.25;;;;;;;3.74;95.26;99489.22;5056139;28;20084;-76
2021/01/19 08:33:07;;;;;;;5.72;1.35;;;;;;;3.76;95.43;99482.94;5057425;28;20431;-77
2021/01/19 08:35:37;;;;;;;6.00;1.10;;;;;;;3.79;95.39;99495.16;5057637;28;20056;-73
2021/01/19 08:38:05;;;;;;;8.45;1.30;;;;;;;3.75;95.65;99481.22;5052399;28;20045;-74
2021/01/19 08:40:35;;;;;;;4.65;1.25;;;;;;;3.67;95.12;99484.19;5042643;28;20053;-79
2021/01/19 08:43:05;;;;;;;5.07;1.45;;;;;;;3.70;95.79;99470.00;5043993;28;20115;-76
2021/01/19 08:45:34;;;;;;;4.50;1.15;;;;;;;3.71;95.19;99494.63;5050753;28;20041;-77
2021/01/19 08:48:02;;;;;;;6.25;1.17;;;;;;;3.69;95.13;99505.25;5044613;28;20052;-79
2021/01/19 08:50:32;;;;;;;2.63;1.13;;;;;;;3.72;95.44;99498.97;5047989;28;20052;-77
2021/01/19 08:53:11;;;;;;;6.57;2.22;;;;;;;3.72;95.58;99498.97;5037290;28;20057;-76
2021/01/19 08:55:39;;;;;;;3.53;1.30;;;;;;;3.76;94.68;99495.31;5037330;28;20145;-76
2021/01/19 08:58:07;;;;;;;3.47;1.10;;;;;;;3.74;94.80;99478.66;5036045;28;20055;-75
2021/01/19 09:00:39;;;;;;;2.88;0.73;;;;;;;3.72;94.61;99515.69;5046616;28;20513;-75
2021/01/19 09:03:17;;;;;;;2.97;1.20;;;;;;;3.81;94.80;99466.91;5042903;28;20107;-75
2021/01/19 09:06:07;;;;;;;3.40;0.90;;;;;;;3.79;95.19;99485.47;5041608;28;20053;-75
2021/01/19 09:08:38;;;;;;;3.40;1.23;;;;;;;3.82;95.40;99471.28;5038373;28;20336;-76
2021/01/19 09:11:07;;;;;;;4.38;1.50;;;;;;;3.79;95.39;99476.69;5050803;28;20056;-75
2021/01/19 09:13:44;;;;;;;2.58;0.88;;;;;;;3.92;94.44;99485.75;5044256;28;20431;-75
2021/01/19 09:16:21;;;;;;;4.72;1.00;;;;;;;3.97;95.46;99426.63;5035991;28;20060;-75
2021/01/19 09:18:55;;;;;;;2.95;0.80;;;;;;;3.93;95.04;99511.25;5036905;28;20053;-79
2021/01/19 09:21:22;;;;;;;4.35;1.10;;;;;;;3.97;95.43;99450.41;5036928;28;20053;-76
2021/01/19 09:23:49;;;;;;;5.03;1.10;;;;;;;3.97;94.50;99505.84;5036226;28;20045;-77
2021/01/19 09:26:15;;;;;;;2.78;0.73;;;;;;;3.82;94.95;99439.59;5036237;28;20079;-77
2021/01/19 09:28:41;;;;;;;3.15;0.90;;;;;;;3.92;95.15;99454.09;5040795;28;20046;-76
2021/01/19 09:31:10;;;;;;;2.30;0.70;;;;;;;3.94;95.08;99514.75;5052689;28;20053;-77
2021/01/19 09:33:38;;;;;;;5.35;1.08;;;;;;;3.98;94.81;99515.47;5053507;28;20055;-77
2021/01/19 09:36:09;;;;;;;2.40;0.95;;;;;;;3.98;94.29;99503.09;5056942;28;20277;-76
2021/01/19 09:38:36;;;;;;;;;;;;;;;3.98;95.11;99484.63;5057128;28;20045;-75
2021/01/19 09:41:03;;;;;;;1.83;0.88;;;;;;;4.01;94.56;99488.91;5056918;28;19951;-75
2021/01/19 09:43:32;;;;;;;2.25;0.70;;;;;;;3.96;94.40;99483.00;5056492;28;20114;-77
2021/01/19 09:46:01;;;;;;;3.83;0.95;;;;;;;4.08;94.01;99491.22;5048474;28;20056;-76
2021/01/19 09:48:31;;;;;;;1.30;0.60;;;;;;;4.11;93.45;99490.22;5048362;28;20072;-76
2021/01/19 09:51:01;;;;;;;2.50;1.02;;;;;;;4.09;94.81;99502.66;5045600;28;20095;-77
2021/01/19 09:53:31;;;;;;;1.48;0.80;;;;;;;4.12;93.80;99515.72;5041513;28;20160;-77
2021/01/19 09:55:59;;;;;;;2.13;0.80;;;;;;;4.13;94.30;99498.94;5048102;28;20049;-78
2021/01/19 09:58:27;;;;;;;3.42;1.05;;;;;;;4.18;94.26;99481.09;5041624;28;20450;-76
2021/01/19 10:00:55;;;;;;;2.65;0.90;;;;;;;4.20;93.84;99503.00;5053023;28;20051;-76
2021/01/19 10:03:26;;;;;;;1.75;0.70;;;;;;;4.22;93.65;99492.38;5055887;28;20075;-76
2021/01/19 10:06:01;;;;;;;2.08;0.80;;;;;;;4.25;92.52;99494.03;5056027;28;20056;-76
2021/01/19 10:08:27;;;;;;;3.05;0.90;;;;;;;4.24;94.12;99493.16;5055763;28;20053;-77
2021/01/19 10:10:53;;;;;;;1.17;0.68;;;;;;;4.29;94.03;99487.66;5034107;28;20080;-76
2021/01/19 10:13:30;;;;;;;2.22;0.70;;;;;;;4.33;93.71;99474.28;5035982;28;20061;-76
2021/01/19 10:16:07;;;;;;;2.05;0.80;;;;;;;4.37;93.67;99496.13;5035698;28;20049;-75
2021/01/19 10:18:34;;;;;;;4.25;0.73;;;;;;;4.42;94.09;99535.53;5035729;28;20046;-76
2021/01/19 10:21:00;;;;;;;2.67;0.70;;;;;;;4.56;92.93;99522.53;5037307;28;20053;-75
2021/01/19 10:23:32;;;;;;;0.82;0.50;;;;;;;4.51;93.10;99491.97;5053333;28;20106;-76
2021/01/19 10:26:05;;;;;;;;;;;;;;;4.53;92.25;99500.69;5044432;28;20053;-77
2021/01/19 10:28:37;;;;;;;1.88;1.05;;;;;;;4.47;93.66;99525.63;5048214;28;19928;-79
2021/01/19 10:31:22;;;;;;;0.77;0.40;;;;;;;4.51;92.73;99513.13;5048625;28;20057;-77
2021/01/19 10:33:58;;;;;;;2.60;0.68;;;;;;;4.53;91.92;99505.97;5045746;28;20041;-76
2021/01/19 10:36:26;;;;;;;0.60;0.60;;;;;;;4.54;92.79;99508.53;5046688;28;20049;-76
2021/01/19 10:39:00;;;;;;;0.70;0.50;;;;;;;4.56;93.33;99519.03;5044098;28;20045;-76
2021/01/19 10:41:28;;;;;;;1.10;0.60;;;;;;;4.71;92.65;99518.34;5035246;28;20363;-75
2021/01/19 10:43:57;;;;;;;1.17;0.50;;;;;;;4.78;93.20;99510.94;5037662;28;20072;-75
2021/01/19 10:46:31;;;;;;;1.90;0.85;;;;;;;4.77;93.52;99525.09;5054987;28;20106;-74
2021/01/19 10:49:05;;;;;;;3.45;0.90;;;;;;;4.74;92.95;99502.31;5051977;28;20059;-74
2021/01/19 10:51:34;;;;;;;1.30;0.50;;;;;;;4.76;93.41;99497.78;5050581;28;20509;-75
2021/01/19 10:54:05;;;;;;;0.95;0.55;;;;;;;4.73;93.40;99494.44;5034356;28;20364;-75
2021/01/19 10:56:31;;;;;;;2.17;0.65;;;;;;;4.71;92.99;99506.88;5040317;28;20051;-75
2021/01/19 10:58:57;;;;;;;3.40;0.50;;;;;;;4.79;93.63;99511.81;5040115;28;20056;-74
2021/01/19 11:01:27;;;;;;;1.50;0.75;;;;;;;4.80;93.35;99487.09;5043703;28;20048;-73
2021/01/19 11:03:54;;;;;;;2.03;0.63;;;;;;;4.78;93.79;99499.53;5039633;28;20046;-74
2021/01/19 11:06:21;;;;;;;0.95;0.60;;;;;;;4.81;93.62;99504.66;5034495;28;20053;-75
2021/01/19 11:08:47;;;;;;;2.80;0.57;;;;;;;4.85;93.24;99527.41;5034067;28;20049;-75
2021/01/19 11:11:14;;;;;;;1.73;0.60;;;;;;;4.84;94.08;99500.09;5052884;28;20056;-72
2021/01/19 11:13:40;;;;;;;1.65;0.60;;;;;;;4.95;93.79;99518.06;5043224;28;20060;-73
2021/01/19 11:16:06;;;;;;;0.50;0.50;;;;;;;5.08;93.64;99501.63;5048399;28;20042;-75
2021/01/19 11:18:35;;;;;;;0.50;0.45;;;;;;;5.09;93.33;99493.63;5043335;28;20044;-74
2021/01/19 11:21:01;;;;;;;0.40;0.40;;;;;;;5.18;93.70;99515.25;5044005;28;20711;-74
2021/01/19 11:23:28;;;;;;;0.90;0.60;;;;;;;5.23;93.38;99505.31;5042626;28;20055;-72
2021/01/19 11:25:54;;;;;;;1.63;0.60;;;;;;;5.18;93.72;99509.97;5061538;28;20055;-74
2021/01/19 11:28:20;;;;;;;1.55;0.57;;;;;;;5.20;92.51;99508.09;5043418;28;20040;-76
2021/01/19 11:30:48;;;;;;;2.22;0.60;;;;;;;5.13;93.71;99497.81;5048258;28;20438;-77
2021/01/19 11:33:14;;;;;;;1.63;0.70;;;;;;;5.18;92.47;99488.78;5040877;28;20053;-76
2021/01/19 11:35:40;;;;;;;0.93;0.35;;;;;;;5.17;92.21;99495.88;5045592;28;20045;-73
2021/01/19 11:38:06;;;;;;;2.97;0.80;;;;;;;5.25;93.15;99504.31;5045532;28;20049;-75
2021/01/19 11:40:32;;;;;;;1.30;0.70;;;;;;;5.32;93.24;99509.28;5050012;28;20055;-76
2021/01/19 11:43:14;;;;;;;1.17;0.60;;;;;;;5.29;92.75;99483.84;5050289;28;20052;-79
2021/01/19 11:45:41;;;;;;;1.08;0.60;;;;;;;5.40;92.69;99499.19;5053804;28;21067;-81
2021/01/19 11:48:10;;;;;;;1.20;0.50;;;;;;;5.43;93.47;99496.34;5057891;28;20049;-79
2021/01/19 11:50:40;;;;;;;3.50;0.70;;;;;;;5.42;93.15;99479.63;5048908;28;20077;-79